sensor_id;sensor_type;location;lat;lon;timestamp;temperature;humidity
51305;HTU21D;37392;50.964;6.952;2022-08-19T00:02:22;18.63;91.91
51305;HTU21D;37392;50.964;6.952;2022-08-19T00:04:48;18.59;91.95
51305;HTU21D;37392;50.964;6.952;2022-08-19T00:07:17;18.56;92.09
51305;HTU21D;37392;50.964;6.952;2022-08-19T00:09:43;18.54;92.18
51305;HTU21D;37392;50.964;6.952;2022-08-19T00:12:09;18.50;92.38
51305;HTU21D;37392;50.964;6.952;2022-08-19T00:14:35;18.47;92.42
51305;HTU21D;37392;50.964;6.952;2022-08-19T00:17:02;18.43;92.37
51305;HTU21D;37392;50.964;6.952;2022-08-19T00:19:28;18.40;92.61
51305;HTU21D;37392;50.964;6.952;2022-08-19T00:21:55;18.35;92.85
51305;HTU21D;37392;50.964;6.952;2022-08-19T00:24:21;18.34;93.24
51305;HTU21D;37392;50.964;6.952;2022-08-19T00:26:47;18.28;93.65
51305;HTU21D;37392;50.964;6.952;2022-08-19T00:29:14;18.24;93.46
51305;HTU21D;37392;50.964;6.952;2022-08-19T00:31:41;18.24;93.72
51305;HTU21D;37392;50.964;6.952;2022-08-19T00:34:08;18.21;93.52
51305;HTU21D;37392;50.964;6.952;2022-08-19T00:36:34;18.21;93.74
51305;HTU21D;37392;50.964;6.952;2022-08-19T00:39:00;18.22;93.57
51305;HTU21D;37392;50.964;6.952;2022-08-19T00:41:25;18.15;93.58
51305;HTU21D;37392;50.964;6.952;2022-08-19T00:46:33;18.06;93.65
51305;HTU21D;37392;50.964;6.952;2022-08-19T00:49:02;18.06;94.24
51305;HTU21D;37392;50.964;6.952;2022-08-19T00:51:32;18.09;94.14
51305;HTU21D;37392;50.964;6.952;2022-08-19T00:53:57;18.07;94.35
51305;HTU21D;37392;50.964;6.952;2022-08-19T00:56:24;18.02;94.67
51305;HTU21D;37392;50.964;6.952;2022-08-19T00:58:52;18.04;94.88
51305;HTU21D;37392;50.964;6.952;2022-08-19T01:01:19;18.00;94.74
51305;HTU21D;37392;50.964;6.952;2022-08-19T01:03:44;18.00;95.04
51305;HTU21D;37392;50.964;6.952;2022-08-19T01:06:10;17.92;95.11
51305;HTU21D;37392;50.964;6.952;2022-08-19T01:08:35;17.89;95.31
51305;HTU21D;37392;50.964;6.952;2022-08-19T01:11:01;17.87;95.59
51305;HTU21D;37392;50.964;6.952;2022-08-19T01:13:27;17.84;95.71
51305;HTU21D;37392;50.964;6.952;2022-08-19T01:15:55;17.84;95.88
51305;HTU21D;37392;50.964;6.952;2022-08-19T01:18:22;17.80;95.68
51305;HTU21D;37392;50.964;6.952;2022-08-19T01:20:49;17.78;95.69
51305;HTU21D;37392;50.964;6.952;2022-08-19T01:23:15;17.76;95.65
51305;HTU21D;37392;50.964;6.952;2022-08-19T01:28:13;17.75;95.90
51305;HTU21D;37392;50.964;6.952;2022-08-19T01:30:43;17.73;96.13
51305;HTU21D;37392;50.964;6.952;2022-08-19T01:33:09;17.69;96.56
51305;HTU21D;37392;50.964;6.952;2022-08-19T01:35:34;17.69;96.50
51305;HTU21D;37392;50.964;6.952;2022-08-19T01:38:02;17.63;96.36
51305;HTU21D;37392;50.964;6.952;2022-08-19T01:40:33;17.63;96.27
51305;HTU21D;37392;50.964;6.952;2022-08-19T01:43:01;17.60;96.20
51305;HTU21D;37392;50.964;6.952;2022-08-19T01:45:28;17.59;96.24
51305;HTU21D;37392;50.964;6.952;2022-08-19T01:47:55;17.60;96.33
51305;HTU21D;37392;50.964;6.952;2022-08-19T01:50:21;17.60;96.59
51305;HTU21D;37392;50.964;6.952;2022-08-19T01:52:47;17.56;96.94
51305;HTU21D;37392;50.964;6.952;2022-08-19T01:55:14;17.59;96.87
51305;HTU21D;37392;50.964;6.952;2022-08-19T01:57:43;17.56;96.90
51305;HTU21D;37392;50.964;6.952;2022-08-19T02:00:12;17.54;96.81
51305;HTU21D;37392;50.964;6.952;2022-08-19T02:02:40;17.51;96.82
51305;HTU21D;37392;50.964;6.952;2022-08-19T02:05:07;17.50;96.97
51305;HTU21D;37392;50.964;6.952;2022-08-19T02:07:33;17.46;97.10
51305;HTU21D;37392;50.964;6.952;2022-08-19T02:10:03;17.45;97.33
51305;HTU21D;37392;50.964;6.952;2022-08-19T02:12:30;17.41;97.58
51305;HTU21D;37392;50.964;6.952;2022-08-19T02:14:55;17.48;97.56
51305;HTU21D;37392;50.964;6.952;2022-08-19T02:17:20;17.47;97.52
51305;HTU21D;37392;50.964;6.952;2022-08-19T02:19:46;17.47;97.52
51305;HTU21D;37392;50.964;6.952;2022-08-19T02:22:13;17.39;97.50
51305;HTU21D;37392;50.964;6.952;2022-08-19T02:24:38;17.38;97.55
51305;HTU21D;37392;50.964;6.952;2022-08-19T02:27:04;17.35;97.78
51305;HTU21D;37392;50.964;6.952;2022-08-19T02:29:31;17.36;97.99
51305;HTU21D;37392;50.964;6.952;2022-08-19T02:31:56;17.34;98.00
51305;HTU21D;37392;50.964;6.952;2022-08-19T02:34:22;17.34;98.10
51305;HTU21D;37392;50.964;6.952;2022-08-19T02:36:49;17.38;98.15
51305;HTU21D;37392;50.964;6.952;2022-08-19T02:39:15;17.38;98.15
51305;HTU21D;37392;50.964;6.952;2022-08-19T02:41:40;17.37;98.15
51305;HTU21D;37392;50.964;6.952;2022-08-19T02:44:06;17.38;98.42
51305;HTU21D;37392;50.964;6.952;2022-08-19T02:46:32;17.39;98.13
51305;HTU21D;37392;50.964;6.952;2022-08-19T02:49:05;17.47;98.58
51305;HTU21D;37392;50.964;6.952;2022-08-19T02:51:36;17.46;98.68
51305;HTU21D;37392;50.964;6.952;2022-08-19T02:54:03;17.49;98.61
51305;HTU21D;37392;50.964;6.952;2022-08-19T02:56:29;17.53;98.97
51305;HTU21D;37392;50.964;6.952;2022-08-19T02:58:56;17.61;99.29
51305;HTU21D;37392;50.964;6.952;2022-08-19T03:01:22;17.69;99.48
51305;HTU21D;37392;50.964;6.952;2022-08-19T03:03:56;17.70;99.34
51305;HTU21D;37392;50.964;6.952;2022-08-19T03:06:22;17.70;98.77
51305;HTU21D;37392;50.964;6.952;2022-08-19T03:08:48;17.63;98.77
51305;HTU21D;37392;50.964;6.952;2022-08-19T03:11:27;17.62;98.85
51305;HTU21D;37392;50.964;6.952;2022-08-19T03:13:54;17.56;98.62
51305;HTU21D;37392;50.964;6.952;2022-08-19T03:16:22;17.52;98.54
51305;HTU21D;37392;50.964;6.952;2022-08-19T03:18:48;17.50;98.57
51305;HTU21D;37392;50.964;6.952;2022-08-19T03:21:18;17.45;98.71
51305;HTU21D;37392;50.964;6.952;2022-08-19T03:23:45;17.49;98.84
51305;HTU21D;37392;50.964;6.952;2022-08-19T03:26:11;17.44;98.64
51305;HTU21D;37392;50.964;6.952;2022-08-19T03:28:36;17.38;98.52
51305;HTU21D;37392;50.964;6.952;2022-08-19T03:31:03;17.38;98.64
51305;HTU21D;37392;50.964;6.952;2022-08-19T03:33:33;17.36;98.92
51305;HTU21D;37392;50.964;6.952;2022-08-19T03:36:12;17.35;98.72
51305;HTU21D;37392;50.964;6.952;2022-08-19T03:38:41;17.33;98.61
51305;HTU21D;37392;50.964;6.952;2022-08-19T03:41:11;17.29;98.74
51305;HTU21D;37392;50.964;6.952;2022-08-19T03:43:38;17.28;99.07
51305;HTU21D;37392;50.964;6.952;2022-08-19T03:46:06;17.26;99.13
51305;HTU21D;37392;50.964;6.952;2022-08-19T03:48:34;17.24;99.08
51305;HTU21D;37392;50.964;6.952;2022-08-19T03:51:00;17.24;99.34
51305;HTU21D;37392;50.964;6.952;2022-08-19T03:53:26;17.26;99.45
51305;HTU21D;37392;50.964;6.952;2022-08-19T03:55:52;17.24;99.81
51305;HTU21D;37392;50.964;6.952;2022-08-19T03:58:18;17.29;100.00
51305;HTU21D;37392;50.964;6.952;2022-08-19T04:00:44;17.25;99.96
51305;HTU21D;37392;50.964;6.952;2022-08-19T04:03:10;17.24;99.94
51305;HTU21D;37392;50.964;6.952;2022-08-19T04:05:35;17.21;100.06
51305;HTU21D;37392;50.964;6.952;2022-08-19T04:08:03;17.19;100.61
51305;HTU21D;37392;50.964;6.952;2022-08-19T04:10:31;17.19;100.78
51305;HTU21D;37392;50.964;6.952;2022-08-19T04:13:06;17.20;100.90
51305;HTU21D;37392;50.964;6.952;2022-08-19T04:15:38;17.25;101.64
51305;HTU21D;37392;50.964;6.952;2022-08-19T04:18:06;17.26;101.03
51305;HTU21D;37392;50.964;6.952;2022-08-19T04:20:43;17.28;101.00
51305;HTU21D;37392;50.964;6.952;2022-08-19T04:23:10;17.23;100.99
51305;HTU21D;37392;50.964;6.952;2022-08-19T04:25:41;17.24;101.20
51305;HTU21D;37392;50.964;6.952;2022-08-19T04:28:08;17.26;101.96
51305;HTU21D;37392;50.964;6.952;2022-08-19T04:30:43;17.22;101.60
51305;HTU21D;37392;50.964;6.952;2022-08-19T04:33:10;17.23;101.65
51305;HTU21D;37392;50.964;6.952;2022-08-19T04:35:38;17.23;102.15
51305;HTU21D;37392;50.964;6.952;2022-08-19T04:38:07;17.23;101.89
51305;HTU21D;37392;50.964;6.952;2022-08-19T04:40:34;17.24;101.93
51305;HTU21D;37392;50.964;6.952;2022-08-19T04:43:24;17.30;101.89
51305;HTU21D;37392;50.964;6.952;2022-08-19T04:45:49;17.40;102.65
51305;HTU21D;37392;50.964;6.952;2022-08-19T04:48:16;17.56;102.38
51305;HTU21D;37392;50.964;6.952;2022-08-19T04:50:52;17.66;101.61
51305;HTU21D;37392;50.964;6.952;2022-08-19T04:53:29;17.73;101.07
51305;HTU21D;37392;50.964;6.952;2022-08-19T04:55:56;17.84;100.99
51305;HTU21D;37392;50.964;6.952;2022-08-19T04:58:24;17.98;100.54
51305;HTU21D;37392;50.964;6.952;2022-08-19T05:00:50;18.13;100.52
51305;HTU21D;37392;50.964;6.952;2022-08-19T05:03:16;18.26;99.81
51305;HTU21D;37392;50.964;6.952;2022-08-19T05:05:42;18.42;99.57
51305;HTU21D;37392;50.964;6.952;2022-08-19T05:08:09;18.57;99.21
51305;HTU21D;37392;50.964;6.952;2022-08-19T05:10:36;18.73;98.62
51305;HTU21D;37392;50.964;6.952;2022-08-19T05:13:02;18.82;98.06
51305;HTU21D;37392;50.964;6.952;2022-08-19T05:15:28;18.89;97.23
51305;HTU21D;37392;50.964;6.952;2022-08-19T05:17:54;18.97;96.95
51305;HTU21D;37392;50.964;6.952;2022-08-19T05:20:38;19.12;96.71
51305;HTU21D;37392;50.964;6.952;2022-08-19T05:23:22;19.26;96.39
51305;HTU21D;37392;50.964;6.952;2022-08-19T05:25:48;19.38;95.77
51305;HTU21D;37392;50.964;6.952;2022-08-19T05:28:15;19.53;95.72
51305;HTU21D;37392;50.964;6.952;2022-08-19T05:30:40;19.60;95.06
51305;HTU21D;37392;50.964;6.952;2022-08-19T05:33:08;19.74;94.40
51305;HTU21D;37392;50.964;6.952;2022-08-19T05:35:36;19.83;93.98
51305;HTU21D;37392;50.964;6.952;2022-08-19T05:38:02;19.91;93.30
51305;HTU21D;37392;50.964;6.952;2022-08-19T05:40:35;19.99;93.36
51305;HTU21D;37392;50.964;6.952;2022-08-19T05:43:01;19.98;93.01
51305;HTU21D;37392;50.964;6.952;2022-08-19T05:45:28;20.01;92.99
51305;HTU21D;37392;50.964;6.952;2022-08-19T05:47:53;20.03;93.13
51305;HTU21D;37392;50.964;6.952;2022-08-19T05:50:19;20.07;93.54
51305;HTU21D;37392;50.964;6.952;2022-08-19T05:52:45;20.13;93.42
51305;HTU21D;37392;50.964;6.952;2022-08-19T05:55:11;20.19;92.98
51305;HTU21D;37392;50.964;6.952;2022-08-19T05:57:36;20.28;92.59
51305;HTU21D;37392;50.964;6.952;2022-08-19T06:00:03;20.36;92.72
51305;HTU21D;37392;50.964;6.952;2022-08-19T06:02:33;20.49;92.30
51305;HTU21D;37392;50.964;6.952;2022-08-19T06:05:00;20.71;91.50
51305;HTU21D;37392;50.964;6.952;2022-08-19T06:07:27;21.01;91.13
51305;HTU21D;37392;50.964;6.952;2022-08-19T06:09:54;21.47;89.73
51305;HTU21D;37392;50.964;6.952;2022-08-19T06:12:20;21.99;87.70
51305;HTU21D;37392;50.964;6.952;2022-08-19T06:14:51;22.60;84.99
51305;HTU21D;37392;50.964;6.952;2022-08-19T06:17:17;23.20;83.29
51305;HTU21D;37392;50.964;6.952;2022-08-19T06:19:43;23.77;81.14
51305;HTU21D;37392;50.964;6.952;2022-08-19T06:22:09;24.38;78.68
51305;HTU21D;37392;50.964;6.952;2022-08-19T06:24:36;24.87;76.29
51305;HTU21D;37392;50.964;6.952;2022-08-19T06:27:02;25.30;74.90
51305;HTU21D;37392;50.964;6.952;2022-08-19T06:29:30;25.59;73.48
51305;HTU21D;37392;50.964;6.952;2022-08-19T06:31:57;25.89;72.18
51305;HTU21D;37392;50.964;6.952;2022-08-19T06:34:24;26.40;71.18
51305;HTU21D;37392;50.964;6.952;2022-08-19T06:36:51;26.70;69.70
51305;HTU21D;37392;50.964;6.952;2022-08-19T06:39:18;27.16;68.46
51305;HTU21D;37392;50.964;6.952;2022-08-19T06:41:52;27.66;66.78
51305;HTU21D;37392;50.964;6.952;2022-08-19T06:44:22;28.34;65.05
51305;HTU21D;37392;50.964;6.952;2022-08-19T06:46:49;28.97;63.01
51305;HTU21D;37392;50.964;6.952;2022-08-19T06:49:16;29.51;61.18
51305;HTU21D;37392;50.964;6.952;2022-08-19T06:51:45;30.10;59.60
51305;HTU21D;37392;50.964;6.952;2022-08-19T06:54:15;30.52;58.22
51305;HTU21D;37392;50.964;6.952;2022-08-19T06:56:42;30.46;58.05
51305;HTU21D;37392;50.964;6.952;2022-08-19T06:59:10;30.66;57.73
51305;HTU21D;37392;50.964;6.952;2022-08-19T07:01:37;31.19;56.40
51305;HTU21D;37392;50.964;6.952;2022-08-19T07:04:08;31.53;55.79
51305;HTU21D;37392;50.964;6.952;2022-08-19T07:06:34;31.82;54.63
51305;HTU21D;37392;50.964;6.952;2022-08-19T07:09:01;31.72;54.71
51305;HTU21D;37392;50.964;6.952;2022-08-19T07:11:27;31.58;54.91
51305;HTU21D;37392;50.964;6.952;2022-08-19T07:13:53;31.30;55.64
51305;HTU21D;37392;50.964;6.952;2022-08-19T07:16:19;31.14;55.71
51305;HTU21D;37392;50.964;6.952;2022-08-19T07:18:46;30.83;56.35
51305;HTU21D;37392;50.964;6.952;2022-08-19T07:21:19;30.75;56.43
51305;HTU21D;37392;50.964;6.952;2022-08-19T07:23:47;30.34;57.53
51305;HTU21D;37392;50.964;6.952;2022-08-19T07:26:21;30.44;57.31
51305;HTU21D;37392;50.964;6.952;2022-08-19T07:28:51;30.55;56.93
51305;HTU21D;37392;50.964;6.952;2022-08-19T07:31:18;30.86;56.20
51305;HTU21D;37392;50.964;6.952;2022-08-19T07:33:48;30.87;55.66
51305;HTU21D;37392;50.964;6.952;2022-08-19T07:36:17;31.40;54.78
51305;HTU21D;37392;50.964;6.952;2022-08-19T07:38:45;31.37;54.48
51305;HTU21D;37392;50.964;6.952;2022-08-19T07:41:14;31.52;54.23
51305;HTU21D;37392;50.964;6.952;2022-08-19T07:43:46;31.54;53.82
51305;HTU21D;37392;50.964;6.952;2022-08-19T07:46:13;31.31;54.37
51305;HTU21D;37392;50.964;6.952;2022-08-19T07:48:39;31.02;54.68
51305;HTU21D;37392;50.964;6.952;2022-08-19T07:51:12;30.84;55.46
51305;HTU21D;37392;50.964;6.952;2022-08-19T07:53:38;30.63;55.74
51305;HTU21D;37392;50.964;6.952;2022-08-19T07:56:03;30.53;56.23
51305;HTU21D;37392;50.964;6.952;2022-08-19T07:58:31;30.45;56.47
51305;HTU21D;37392;50.964;6.952;2022-08-19T08:00:59;30.34;56.55
51305;HTU21D;37392;50.964;6.952;2022-08-19T08:03:26;30.17;57.00
51305;HTU21D;37392;50.964;6.952;2022-08-19T08:06:10;30.23;56.90
51305;HTU21D;37392;50.964;6.952;2022-08-19T08:08:58;30.16;57.13
51305;HTU21D;37392;50.964;6.952;2022-08-19T08:11:40;29.85;57.73
51305;HTU21D;37392;50.964;6.952;2022-08-19T08:14:07;29.68;58.55
51305;HTU21D;37392;50.964;6.952;2022-08-19T08:16:36;29.58;59.09
51305;HTU21D;37392;50.964;6.952;2022-08-19T08:19:06;29.34;59.67
51305;HTU21D;37392;50.964;6.952;2022-08-19T08:21:32;28.97;60.68
51305;HTU21D;37392;50.964;6.952;2022-08-19T08:23:58;28.83;61.30
51305;HTU21D;37392;50.964;6.952;2022-08-19T08:26:24;28.85;61.39
51305;HTU21D;37392;50.964;6.952;2022-08-19T08:28:50;29.06;61.03
51305;HTU21D;37392;50.964;6.952;2022-08-19T08:31:16;29.11;60.80
51305;HTU21D;37392;50.964;6.952;2022-08-19T08:33:44;29.23;60.94
51305;HTU21D;37392;50.964;6.952;2022-08-19T08:36:10;29.73;59.43
51305;HTU21D;37392;50.964;6.952;2022-08-19T08:38:36;30.31;58.28
51305;HTU21D;37392;50.964;6.952;2022-08-19T08:41:07;31.28;56.05
51305;HTU21D;37392;50.964;6.952;2022-08-19T08:43:38;31.88;54.08
51305;HTU21D;37392;50.964;6.952;2022-08-19T08:46:09;31.78;54.22
51305;HTU21D;37392;50.964;6.952;2022-08-19T08:48:54;32.34;53.20
51305;HTU21D;37392;50.964;6.952;2022-08-19T08:51:33;32.49;52.11
51305;HTU21D;37392;50.964;6.952;2022-08-19T08:54:19;32.73;51.79
51305;HTU21D;37392;50.964;6.952;2022-08-19T08:56:46;33.25;50.74
51305;HTU21D;37392;50.964;6.952;2022-08-19T08:59:20;33.36;49.99
51305;HTU21D;37392;50.964;6.952;2022-08-19T09:01:49;33.25;50.05
51305;HTU21D;37392;50.964;6.952;2022-08-19T09:04:15;33.70;48.89
51305;HTU21D;37392;50.964;6.952;2022-08-19T09:09:30;35.30;45.64
51305;HTU21D;37392;50.964;6.952;2022-08-19T09:12:06;36.09;44.07
51305;HTU21D;37392;50.964;6.952;2022-08-19T09:14:48;36.51;43.56
51305;HTU21D;37392;50.964;6.952;2022-08-19T09:17:26;36.95;42.16
51305;HTU21D;37392;50.964;6.952;2022-08-19T09:22:44;37.82;40.16
51305;HTU21D;37392;50.964;6.952;2022-08-19T09:25:12;37.87;39.52
51305;HTU21D;37392;50.964;6.952;2022-08-19T09:27:40;38.43;38.73
51305;HTU21D;37392;50.964;6.952;2022-08-19T09:30:07;38.56;38.40
51305;HTU21D;37392;50.964;6.952;2022-08-19T09:32:34;38.80;37.49
51305;HTU21D;37392;50.964;6.952;2022-08-19T09:34:59;39.14;37.35
51305;HTU21D;37392;50.964;6.952;2022-08-19T09:37:26;39.30;37.30
51305;HTU21D;37392;50.964;6.952;2022-08-19T09:39:53;39.80;36.06
51305;HTU21D;37392;50.964;6.952;2022-08-19T09:42:18;40.17;34.99
51305;HTU21D;37392;50.964;6.952;2022-08-19T09:44:46;39.96;35.08
51305;HTU21D;37392;50.964;6.952;2022-08-19T09:47:12;40.56;34.46
51305;HTU21D;37392;50.964;6.952;2022-08-19T09:49:38;40.75;33.86
51305;HTU21D;37392;50.964;6.952;2022-08-19T09:52:04;40.85;33.20
51305;HTU21D;37392;50.964;6.952;2022-08-19T09:54:33;41.45;32.93
51305;HTU21D;37392;50.964;6.952;2022-08-19T09:56:59;41.15;32.41
51305;HTU21D;37392;50.964;6.952;2022-08-19T09:59:25;40.98;33.05
51305;HTU21D;37392;50.964;6.952;2022-08-19T10:01:51;40.65;33.32
51305;HTU21D;37392;50.964;6.952;2022-08-19T10:04:17;40.76;33.25
51305;HTU21D;37392;50.964;6.952;2022-08-19T10:06:42;41.05;32.42
51305;HTU21D;37392;50.964;6.952;2022-08-19T10:09:08;41.45;32.25
51305;HTU21D;37392;50.964;6.952;2022-08-19T10:11:36;41.56;32.28
51305;HTU21D;37392;50.964;6.952;2022-08-19T10:14:04;41.69;32.21
51305;HTU21D;37392;50.964;6.952;2022-08-19T10:16:30;41.86;31.86
51305;HTU21D;37392;50.964;6.952;2022-08-19T10:18:56;41.93;31.76
51305;HTU21D;37392;50.964;6.952;2022-08-19T10:21:23;41.95;31.27
51305;HTU21D;37392;50.964;6.952;2022-08-19T10:23:50;41.40;31.48
51305;HTU21D;37392;50.964;6.952;2022-08-19T10:26:18;40.57;32.46
51305;HTU21D;37392;50.964;6.952;2022-08-19T10:28:45;39.67;33.85
51305;HTU21D;37392;50.964;6.952;2022-08-19T10:31:13;38.34;35.97
51305;HTU21D;37392;50.964;6.952;2022-08-19T10:33:40;37.13;38.14
51305;HTU21D;37392;50.964;6.952;2022-08-19T10:36:11;36.46;39.45
51305;HTU21D;37392;50.964;6.952;2022-08-19T10:38:43;36.17;40.01
51305;HTU21D;37392;50.964;6.952;2022-08-19T10:41:14;36.04;40.15
51305;HTU21D;37392;50.964;6.952;2022-08-19T10:43:45;35.89;40.61
51305;HTU21D;37392;50.964;6.952;2022-08-19T10:46:11;36.67;39.69
51305;HTU21D;37392;50.964;6.952;2022-08-19T10:48:38;37.59;38.06
51305;HTU21D;37392;50.964;6.952;2022-08-19T10:51:04;38.07;37.24
51305;HTU21D;37392;50.964;6.952;2022-08-19T10:53:49;38.47;36.74
51305;HTU21D;37392;50.964;6.952;2022-08-19T10:56:15;39.21;35.79
51305;HTU21D;37392;50.964;6.952;2022-08-19T10:59:00;40.18;34.25
51305;HTU21D;37392;50.964;6.952;2022-08-19T11:01:27;40.51;33.88
51305;HTU21D;37392;50.964;6.952;2022-08-19T11:03:55;40.55;33.83
51305;HTU21D;37392;50.964;6.952;2022-08-19T11:06:22;40.26;33.95
51305;HTU21D;37392;50.964;6.952;2022-08-19T11:08:50;39.86;34.32
51305;HTU21D;37392;50.964;6.952;2022-08-19T11:11:16;39.54;34.98
51305;HTU21D;37392;50.964;6.952;2022-08-19T11:13:42;38.43;36.32
51305;HTU21D;37392;50.964;6.952;2022-08-19T11:16:10;37.51;37.74
51305;HTU21D;37392;50.964;6.952;2022-08-19T11:18:48;37.10;38.36
51305;HTU21D;37392;50.964;6.952;2022-08-19T11:23:42;35.28;40.56
51305;HTU21D;37392;50.964;6.952;2022-08-19T11:26:08;34.65;42.03
51305;HTU21D;37392;50.964;6.952;2022-08-19T11:28:35;34.55;42.53
51305;HTU21D;37392;50.964;6.952;2022-08-19T11:31:01;34.55;42.16
51305;HTU21D;37392;50.964;6.952;2022-08-19T11:33:28;34.53;42.30
51305;HTU21D;37392;50.964;6.952;2022-08-19T11:35:57;34.20;42.88
51305;HTU21D;37392;50.964;6.952;2022-08-19T11:38:23;33.97;43.49
51305;HTU21D;37392;50.964;6.952;2022-08-19T11:40:59;34.07;43.71
51305;HTU21D;37392;50.964;6.952;2022-08-19T11:43:26;33.99;43.34
51305;HTU21D;37392;50.964;6.952;2022-08-19T11:45:53;33.76;43.48
51305;HTU21D;37392;50.964;6.952;2022-08-19T11:48:19;33.45;43.74
51305;HTU21D;37392;50.964;6.952;2022-08-19T11:50:50;33.26;44.05
51305;HTU21D;37392;50.964;6.952;2022-08-19T11:53:17;33.09;44.46
51305;HTU21D;37392;50.964;6.952;2022-08-19T11:55:44;32.97;44.67
51305;HTU21D;37392;50.964;6.952;2022-08-19T11:58:10;32.93;44.45
51305;HTU21D;37392;50.964;6.952;2022-08-19T12:00:37;32.72;44.67
51305;HTU21D;37392;50.964;6.952;2022-08-19T12:03:03;32.57;45.28
51305;HTU21D;37392;50.964;6.952;2022-08-19T12:05:29;32.20;45.51
51305;HTU21D;37392;50.964;6.952;2022-08-19T12:07:54;31.81;46.47
51305;HTU21D;37392;50.964;6.952;2022-08-19T12:10:21;31.37;47.05
51305;HTU21D;37392;50.964;6.952;2022-08-19T12:12:47;30.91;47.65
51305;HTU21D;37392;50.964;6.952;2022-08-19T12:15:12;30.87;48.28
51305;HTU21D;37392;50.964;6.952;2022-08-19T12:17:39;31.20;47.69
51305;HTU21D;37392;50.964;6.952;2022-08-19T12:20:07;31.34;46.77
51305;HTU21D;37392;50.964;6.952;2022-08-19T12:22:34;31.43;46.67
51305;HTU21D;37392;50.964;6.952;2022-08-19T12:25:00;31.48;46.89
51305;HTU21D;37392;50.964;6.952;2022-08-19T12:27:26;31.53;47.15
51305;HTU21D;37392;50.964;6.952;2022-08-19T12:29:51;31.58;46.53
51305;HTU21D;37392;50.964;6.952;2022-08-19T12:32:17;31.64;46.08
51305;HTU21D;37392;50.964;6.952;2022-08-19T12:34:42;31.65;45.02
51305;HTU21D;37392;50.964;6.952;2022-08-19T12:37:08;31.42;45.93
51305;HTU21D;37392;50.964;6.952;2022-08-19T12:39:38;31.27;46.70
51305;HTU21D;37392;50.964;6.952;2022-08-19T12:42:05;31.11;47.30
51305;HTU21D;37392;50.964;6.952;2022-08-19T12:44:30;30.99;47.40
51305;HTU21D;37392;50.964;6.952;2022-08-19T12:46:57;31.07;46.54
51305;HTU21D;37392;50.964;6.952;2022-08-19T12:49:23;31.34;45.92
51305;HTU21D;37392;50.964;6.952;2022-08-19T12:51:48;31.51;45.78
51305;HTU21D;37392;50.964;6.952;2022-08-19T12:54:14;31.63;46.20
51305;HTU21D;37392;50.964;6.952;2022-08-19T12:56:39;31.67;46.07
51305;HTU21D;37392;50.964;6.952;2022-08-19T12:59:07;31.54;46.41
51305;HTU21D;37392;50.964;6.952;2022-08-19T13:01:36;31.33;46.95
51305;HTU21D;37392;50.964;6.952;2022-08-19T13:04:02;31.12;47.32
51305;HTU21D;37392;50.964;6.952;2022-08-19T13:06:27;30.85;47.43
51305;HTU21D;37392;50.964;6.952;2022-08-19T13:08:53;30.66;48.07
51305;HTU21D;37392;50.964;6.952;2022-08-19T13:11:20;30.71;47.88
51305;HTU21D;37392;50.964;6.952;2022-08-19T13:13:48;30.67;48.05
51305;HTU21D;37392;50.964;6.952;2022-08-19T13:16:15;30.42;48.46
51305;HTU21D;37392;50.964;6.952;2022-08-19T13:18:42;30.28;48.53
51305;HTU21D;37392;50.964;6.952;2022-08-19T13:21:10;30.17;48.78
51305;HTU21D;37392;50.964;6.952;2022-08-19T13:23:39;29.97;49.12
51305;HTU21D;37392;50.964;6.952;2022-08-19T13:26:06;29.88;48.76
51305;HTU21D;37392;50.964;6.952;2022-08-19T13:28:32;29.91;48.26
51305;HTU21D;37392;50.964;6.952;2022-08-19T13:31:18;29.76;47.85
51305;HTU21D;37392;50.964;6.952;2022-08-19T13:34:03;29.74;48.08
51305;HTU21D;37392;50.964;6.952;2022-08-19T13:36:31;29.80;48.08
51305;HTU21D;37392;50.964;6.952;2022-08-19T13:38:57;29.66;47.77
51305;HTU21D;37392;50.964;6.952;2022-08-19T13:41:23;29.53;47.60
51305;HTU21D;37392;50.964;6.952;2022-08-19T13:43:48;29.41;47.06
51305;HTU21D;37392;50.964;6.952;2022-08-19T13:46:16;29.28;47.86
51305;HTU21D;37392;50.964;6.952;2022-08-19T13:48:42;29.20;48.53
51305;HTU21D;37392;50.964;6.952;2022-08-19T13:51:08;29.15;47.76
51305;HTU21D;37392;50.964;6.952;2022-08-19T13:53:37;29.18;48.44
51305;HTU21D;37392;50.964;6.952;2022-08-19T13:56:07;29.21;48.33
51305;HTU21D;37392;50.964;6.952;2022-08-19T13:58:37;29.19;48.57
51305;HTU21D;37392;50.964;6.952;2022-08-19T14:01:03;29.07;48.79
51305;HTU21D;37392;50.964;6.952;2022-08-19T14:03:29;28.99;49.33
51305;HTU21D;37392;50.964;6.952;2022-08-19T14:05:56;28.92;49.62
51305;HTU21D;37392;50.964;6.952;2022-08-19T14:08:21;28.83;49.66
51305;HTU21D;37392;50.964;6.952;2022-08-19T14:10:47;28.67;50.33
51305;HTU21D;37392;50.964;6.952;2022-08-19T14:13:15;28.69;49.75
51305;HTU21D;37392;50.964;6.952;2022-08-19T14:15:43;28.73;49.35
51305;HTU21D;37392;50.964;6.952;2022-08-19T14:18:09;28.76;49.18
51305;HTU21D;37392;50.964;6.952;2022-08-19T14:20:35;28.75;49.05
51305;HTU21D;37392;50.964;6.952;2022-08-19T14:23:00;28.72;49.44
51305;HTU21D;37392;50.964;6.952;2022-08-19T14:25:27;28.72;49.80
51305;HTU21D;37392;50.964;6.952;2022-08-19T14:27:54;28.73;50.44
51305;HTU21D;37392;50.964;6.952;2022-08-19T14:30:24;28.74;50.69
51305;HTU21D;37392;50.964;6.952;2022-08-19T14:32:55;28.68;50.76
51305;HTU21D;37392;50.964;6.952;2022-08-19T14:35:23;28.61;51.23
51305;HTU21D;37392;50.964;6.952;2022-08-19T14:37:49;28.64;51.00
51305;HTU21D;37392;50.964;6.952;2022-08-19T14:40:16;28.76;50.53
51305;HTU21D;37392;50.964;6.952;2022-08-19T14:42:45;28.83;49.21
51305;HTU21D;37392;50.964;6.952;2022-08-19T14:45:13;28.84;48.42
51305;HTU21D;37392;50.964;6.952;2022-08-19T14:47:38;28.84;47.24
51305;HTU21D;37392;50.964;6.952;2022-08-19T14:50:08;28.82;47.62
51305;HTU21D;37392;50.964;6.952;2022-08-19T14:52:34;28.71;48.49
51305;HTU21D;37392;50.964;6.952;2022-08-19T14:55:00;28.63;49.07
51305;HTU21D;37392;50.964;6.952;2022-08-19T14:57:26;28.59;49.13
51305;HTU21D;37392;50.964;6.952;2022-08-19T14:59:51;28.56;49.15
51305;HTU21D;37392;50.964;6.952;2022-08-19T15:02:17;28.48;49.51
51305;HTU21D;37392;50.964;6.952;2022-08-19T15:04:43;28.43;49.11
51305;HTU21D;37392;50.964;6.952;2022-08-19T15:07:09;28.37;48.16
51305;HTU21D;37392;50.964;6.952;2022-08-19T15:09:35;28.24;47.92
51305;HTU21D;37392;50.964;6.952;2022-08-19T15:12:01;28.15;47.83
51305;HTU21D;37392;50.964;6.952;2022-08-19T15:14:27;28.02;48.78
51305;HTU21D;37392;50.964;6.952;2022-08-19T15:16:57;27.88;48.79
51305;HTU21D;37392;50.964;6.952;2022-08-19T15:19:23;27.82;48.70
51305;HTU21D;37392;50.964;6.952;2022-08-19T15:21:48;27.82;48.92
51305;HTU21D;37392;50.964;6.952;2022-08-19T15:24:14;27.81;48.56
51305;HTU21D;37392;50.964;6.952;2022-08-19T15:26:39;27.75;48.23
51305;HTU21D;37392;50.964;6.952;2022-08-19T15:29:05;27.69;48.92
51305;HTU21D;37392;50.964;6.952;2022-08-19T15:31:30;27.72;49.34
51305;HTU21D;37392;50.964;6.952;2022-08-19T15:34:01;27.84;49.43